Time;durP1;ratioP1;P1;durP2;ratioP2;P2;SDS_P1;SDS_P2;PMS_P1;PMS_P2;Temp;Humidity;BMP_temperature;BMP_pressure;BME280_temperature;BME280_humidity;BME280_pressure;Samples;Min_cycle;Max_cycle;Signal;HPM_P1;HPM_P2
2023/12/14 00:01:28;;;;;;;9.57;8.43;;;8.80;99.90;;;;;;955267;146;27466;-79
2023/12/14 00:03:55;;;;;;;9.87;8.83;;;8.80;99.90;;;;;;956269;146;27358;-79
2023/12/14 00:06:21;;;;;;;10.93;8.73;;;8.80;99.90;;;;;;952984;147;27344;-79
2023/12/14 00:08:48;;;;;;;9.83;8.57;;;8.70;99.90;;;;;;955086;147;27334;-79
2023/12/14 00:11:15;;;;;;;11.43;9.33;;;8.70;99.90;;;;;;954609;145;27408;-79
2023/12/14 00:13:41;;;;;;;10.00;9.00;;;8.70;99.90;;;;;;956030;145;27311;-79
2023/12/14 00:16:08;;;;;;;9.67;8.10;;;8.70;99.90;;;;;;953141;146;27284;-80
2023/12/14 00:18:34;;;;;;;12.83;9.17;;;8.70;99.90;;;;;;956895;147;27298;-79
2023/12/14 00:21:01;;;;;;;9.93;8.87;;;8.70;99.90;;;;;;956159;146;27365;-80
2023/12/14 00:23:28;;;;;;;9.90;8.53;;;8.70;99.90;;;;;;955053;147;27437;-83
2023/12/14 00:25:54;;;;;;;7.97;7.03;;;8.70;99.90;;;;;;953408;146;27386;-82
2023/12/14 00:28:21;;;;;;;9.47;8.13;;;8.70;99.90;;;;;;953225;146;27318;-82
2023/12/14 00:30:47;;;;;;;10.73;8.63;;;8.70;99.90;;;;;;954889;149;27729;-81
2023/12/14 00:33:14;;;;;;;8.90;8.00;;;8.70;99.90;;;;;;957254;146;27435;-82
2023/12/14 00:35:40;;;;;;;9.00;8.10;;;8.60;99.90;;;;;;954341;148;27258;-83
2023/12/14 00:38:07;;;;;;;9.53;7.87;;;8.70;99.90;;;;;;954558;145;27339;-83
2023/12/14 00:40:34;;;;;;;9.83;8.33;;;8.70;99.90;;;;;;952604;146;27387;-82
2023/12/14 00:43:00;;;;;;;9.60;8.13;;;8.70;99.90;;;;;;954914;149;27337;-81
2023/12/14 00:45:27;;;;;;;10.17;8.60;;;8.70;99.90;;;;;;953202;145;27448;-82
2023/12/14 00:47:53;;;;;;;9.40;8.47;;;8.80;99.90;;;;;;954650;145;27266;-82
2023/12/14 00:50:20;;;;;;;9.03;8.17;;;8.80;99.90;;;;;;953915;149;27353;-82
2023/12/14 00:52:47;;;;;;;8.53;7.50;;;8.80;99.90;;;;;;955085;147;27264;-81
2023/12/14 00:55:13;;;;;;;9.93;7.80;;;8.80;99.90;;;;;;948047;149;27485;-82
2023/12/14 00:57:40;;;;;;;8.43;7.00;;;8.90;99.90;;;;;;948173;149;27321;-82
2023/12/14 01:00:06;;;;;;;8.40;7.50;;;8.90;99.90;;;;;;956241;145;27288;-82
2023/12/14 01:02:33;;;;;;;8.60;7.53;;;8.90;99.90;;;;;;955159;147;27634;-82
2023/12/14 01:05:00;;;;;;;8.53;7.33;;;8.90;99.90;;;;;;955652;148;27389;-81
2023/12/14 01:07:26;;;;;;;7.57;6.80;;;8.90;99.90;;;;;;953186;146;27433;-82
2023/12/14 01:09:53;;;;;;;9.03;7.03;;;9.00;99.90;;;;;;954523;149;27291;-83
2023/12/14 01:12:19;;;;;;;11.17;7.60;;;9.00;99.90;;;;;;953728;149;28791;-82
2023/12/14 01:14:46;;;;;;;8.17;6.93;;;9.00;99.90;;;;;;954386;149;27353;-83
2023/12/14 01:17:13;;;;;;;11.30;7.40;;;9.10;99.90;;;;;;955457;147;27329;-81
2023/12/14 01:19:42;;;;;;;7.67;6.87;;;9.10;99.90;;;;;;952244;148;27275;-82
2023/12/14 01:22:09;;;;;;;7.87;7.17;;;9.10;99.90;;;;;;953059;148;27310;-82
2023/12/14 01:24:35;;;;;;;7.93;7.10;;;9.10;99.90;;;;;;954406;149;27302;-81
2023/12/14 01:27:02;;;;;;;9.47;7.47;;;9.10;99.90;;;;;;954296;147;27455;-81
2023/12/14 01:29:28;;;;;;;7.63;6.83;;;9.10;99.90;;;;;;953900;148;27342;-80
2023/12/14 01:31:55;;;;;;;8.10;7.07;;;9.20;99.90;;;;;;955889;148;27279;-79
2023/12/14 01:34:22;;;;;;;8.70;7.43;;;9.20;99.90;;;;;;955143;147;27274;-79
2023/12/14 01:36:48;;;;;;;8.30;7.47;;;9.20;99.90;;;;;;953250;146;27343;-79
2023/12/14 01:39:15;;;;;;;8.77;7.87;;;9.30;99.90;;;;;;954514;146;27519;-79
2023/12/14 01:41:41;;;;;;;10.77;7.60;;;9.30;99.90;;;;;;955670;146;27211;-79
2023/12/14 01:44:08;;;;;;;8.13;7.33;;;9.30;99.90;;;;;;955154;149;27371;-78
2023/12/14 01:46:35;;;;;;;7.33;6.63;;;9.40;99.90;;;;;;956252;145;27386;-79
2023/12/14 01:49:01;;;;;;;8.60;7.40;;;9.40;99.90;;;;;;955445;147;27435;-79
2023/12/14 01:51:28;;;;;;;8.17;7.37;;;9.40;99.90;;;;;;953512;149;27346;-79
2023/12/14 01:53:54;;;;;;;8.73;7.27;;;9.40;99.90;;;;;;953182;149;27752;-79
2023/12/14 01:56:21;;;;;;;8.90;7.90;;;9.40;99.90;;;;;;955449;145;27285;-79
2023/12/14 01:58:47;;;;;;;10.00;7.57;;;9.40;99.90;;;;;;954628;145;27262;-78
2023/12/14 02:01:20;;;;;;;10.63;7.73;;;9.40;99.90;;;;;;954632;148;27548;-78
2023/12/14 02:03:47;;;;;;;8.27;7.47;;;9.40;99.90;;;;;;950022;145;28923;-79
2023/12/14 02:06:13;;;;;;;9.73;8.07;;;9.50;99.90;;;;;;955358;145;27325;-79
2023/12/14 02:08:40;;;;;;;9.10;8.20;;;9.50;99.90;;;;;;955675;146;27346;-78
2023/12/14 02:11:07;;;;;;;9.57;8.30;;;9.50;99.90;;;;;;955658;145;27309;-79
2023/12/14 02:13:33;;;;;;;10.57;9.00;;;9.50;99.90;;;;;;954162;147;27329;-78
2023/12/14 02:16:00;;;;;;;10.67;8.50;;;9.50;99.90;;;;;;954384;146;27285;-79
2023/12/14 02:18:26;;;;;;;9.13;8.00;;;9.50;99.90;;;;;;954959;145;27275;-79
2023/12/14 02:20:53;;;;;;;10.47;8.27;;;9.50;99.90;;;;;;952888;149;28160;-79
2023/12/14 02:23:19;;;;;;;10.10;8.17;;;9.50;99.90;;;;;;948228;149;27338;-79
2023/12/14 02:25:46;;;;;;;9.80;8.77;;;9.50;99.90;;;;;;949259;147;28068;-79
2023/12/14 02:28:13;;;;;;;17.93;11.23;;;9.40;99.90;;;;;;951142;149;27331;-79
2023/12/14 02:30:39;;;;;;;15.33;10.93;;;9.50;99.90;;;;;;948344;146;27332;-78
2023/12/14 02:33:06;;;;;;;17.63;10.60;;;9.40;99.90;;;;;;947343;148;27372;-79
2023/12/14 02:35:32;;;;;;;15.37;10.33;;;9.40;99.90;;;;;;949149;146;27448;-79
2023/12/14 02:37:59;;;;;;;14.33;10.10;;;9.40;99.90;;;;;;949926;149;27329;-79
2023/12/14 02:40:26;;;;;;;16.43;10.60;;;9.50;99.90;;;;;;948862;149;27278;-81
2023/12/14 02:42:52;;;;;;;15.87;10.53;;;9.40;99.90;;;;;;948258;148;27221;-80
2023/12/14 02:45:19;;;;;;;16.43;10.17;;;9.40;99.90;;;;;;949760;148;27704;-80
2023/12/14 02:47:47;;;;;;;16.00;10.57;;;9.40;99.90;;;;;;949412;146;27322;-80
2023/12/14 02:50:12;;;;;;;16.83;10.47;;;9.40;99.90;;;;;;950104;148;27287;-81
2023/12/14 02:52:38;;;;;;;16.67;11.70;;;9.40;99.90;;;;;;950234;146;27746;-81
2023/12/14 02:55:05;;;;;;;16.77;10.70;;;9.40;99.90;;;;;;948306;148;27279;-80
2023/12/14 02:57:32;;;;;;;15.67;10.30;;;9.40;99.90;;;;;;949800;146;27405;-81
2023/12/14 02:59:58;;;;;;;16.00;10.67;;;9.40;99.90;;;;;;947769;146;27294;-81
2023/12/14 03:02:25;;;;;;;17.97;11.60;;;9.40;99.90;;;;;;949752;149;27298;-81
2023/12/14 03:04:51;;;;;;;18.20;12.03;;;9.40;99.90;;;;;;948358;146;27302;-82
2023/12/14 03:07:19;;;;;;;18.87;11.73;;;9.30;99.90;;;;;;949162;148;27325;-81
2023/12/14 03:09:45;;;;;;;18.87;11.10;;;9.30;99.90;;;;;;951318;146;27330;-82
2023/12/14 03:12:11;;;;;;;14.90;10.70;;;9.30;99.90;;;;;;947479;149;27340;-82
2023/12/14 03:14:38;;;;;;;16.43;11.23;;;9.20;99.90;;;;;;946756;146;27259;-83
2023/12/14 03:17:05;;;;;;;14.57;10.70;;;9.20;99.90;;;;;;947250;147;27287;-81
2023/12/14 03:19:31;;;;;;;12.80;10.13;;;9.20;99.90;;;;;;947545;146;27420;-82
2023/12/14 03:21:58;;;;;;;16.23;10.43;;;9.10;99.90;;;;;;952349;146;27375;-82
2023/12/14 03:24:24;;;;;;;16.30;10.37;;;9.00;99.90;;;;;;955383;146;27399;-82
2023/12/14 03:26:51;;;;;;;14.07;10.70;;;8.90;99.90;;;;;;953895;146;27315;-82
2023/12/14 03:29:17;;;;;;;13.97;10.83;;;8.90;99.90;;;;;;954535;149;27286;-81
2023/12/14 03:31:44;;;;;;;16.10;10.77;;;8.80;99.90;;;;;;952233;145;27346;-83
2023/12/14 03:34:10;;;;;;;15.23;10.87;;;8.70;99.90;;;;;;954422;149;27386;-83
2023/12/14 03:36:37;;;;;;;16.10;11.03;;;8.60;99.90;;;;;;957283;146;27311;-82
2023/12/14 03:39:04;;;;;;;31.33;12.37;;;8.60;99.90;;;;;;955142;148;27282;-82
2023/12/14 03:41:30;;;;;;;51.73;13.17;;;8.50;99.90;;;;;;954782;145;27318;-81
2023/12/14 03:43:57;;;;;;;15.20;10.80;;;8.50;99.90;;;;;;954166;147;27721;-82
2023/12/14 03:46:23;;;;;;;13.33;10.27;;;8.50;99.90;;;;;;952366;145;27382;-82
2023/12/14 03:48:50;;;;;;;17.40;9.97;;;8.50;99.90;;;;;;953545;145;27438;-82
2023/12/14 03:51:19;;;;;;;16.70;10.70;;;8.50;99.90;;;;;;952810;148;27243;-79
2023/12/14 03:53:46;;;;;;;16.47;9.43;;;8.50;99.90;;;;;;953277;147;27342;-80
2023/12/14 03:56:12;;;;;;;14.90;10.27;;;8.50;99.90;;;;;;954682;146;27356;-80
2023/12/14 03:58:39;;;;;;;14.13;9.93;;;8.50;99.90;;;;;;954725;145;27383;-80
2023/12/14 04:01:06;;;;;;;13.17;10.47;;;8.50;99.90;;;;;;953761;146;27813;-80
2023/12/14 04:03:33;;;;;;;11.90;9.83;;;8.60;99.90;;;;;;955395;147;27414;-79
2023/12/14 04:05:59;;;;;;;12.00;9.70;;;8.60;99.90;;;;;;954080;147;27372;-79
2023/12/14 04:08:25;;;;;;;11.00;9.17;;;8.60;99.90;;;;;;956724;149;27416;-80
2023/12/14 04:10:52;;;;;;;14.20;10.87;;;8.60;99.90;;;;;;954730;149;27335;-80
2023/12/14 04:13:19;;;;;;;15.40;11.53;;;8.60;99.90;;;;;;956981;146;27313;-80
2023/12/14 04:15:45;;;;;;;13.37;10.40;;;8.70;99.90;;;;;;955703;146;27346;-79
2023/12/14 04:18:12;;;;;;;16.57;10.97;;;8.70;99.90;;;;;;955897;149;27443;-80
2023/12/14 04:20:38;;;;;;;20.07;12.63;;;8.70;99.90;;;;;;953489;145;27266;-80
2023/12/14 04:23:05;;;;;;;23.33;11.77;;;8.80;99.90;;;;;;955803;145;27342;-80
2023/12/14 04:25:32;;;;;;;17.27;12.20;;;8.80;99.90;;;;;;954256;146;27480;-80
2023/12/14 04:27:58;;;;;;;20.53;12.20;;;8.80;99.90;;;;;;952934;148;28353;-80
2023/12/14 04:30:25;;;;;;;20.80;11.67;;;8.80;99.90;;;;;;955841;146;27314;-80
2023/12/14 04:32:51;;;;;;;22.37;13.03;;;8.80;99.90;;;;;;954733;147;27327;-80
2023/12/14 04:35:18;;;;;;;20.87;12.13;;;8.80;99.90;;;;;;951998;147;27317;-80
2023/12/14 04:37:44;;;;;;;16.23;11.30;;;8.80;99.90;;;;;;953470;149;27321;-79
2023/12/14 04:40:11;;;;;;;16.83;12.07;;;8.80;99.90;;;;;;954672;149;27401;-80
2023/12/14 04:42:38;;;;;;;19.73;12.73;;;8.80;99.90;;;;;;954215;147;27246;-80
2023/12/14 04:45:04;;;;;;;16.87;11.63;;;8.80;99.90;;;;;;953373;145;27337;-80
2023/12/14 04:47:31;;;;;;;24.70;11.50;;;8.80;99.90;;;;;;953061;145;27355;-80
2023/12/14 04:49:58;;;;;;;17.30;12.07;;;8.80;99.90;;;;;;956671;145;27214;-80
2023/12/14 04:52:24;;;;;;;15.77;11.10;;;8.80;99.90;;;;;;954637;149;27772;-80
2023/12/14 04:54:51;;;;;;;15.90;10.93;;;8.80;99.90;;;;;;955162;145;27355;-80
2023/12/14 04:57:18;;;;;;;21.10;11.17;;;8.80;99.90;;;;;;953594;147;27329;-80
2023/12/14 04:59:44;;;;;;;18.37;11.70;;;8.70;99.90;;;;;;953436;146;27305;-80
2023/12/14 05:02:10;;;;;;;18.93;12.30;;;8.80;99.90;;;;;;955166;149;27742;-80
2023/12/14 05:04:37;;;;;;;20.07;12.77;;;8.70;99.90;;;;;;952631;146;27375;-79
2023/12/14 05:07:04;;;;;;;22.60;14.23;;;8.70;99.90;;;;;;954663;148;27376;-79
2023/12/14 05:09:30;;;;;;;21.20;13.63;;;8.70;99.90;;;;;;955756;146;27365;-80
2023/12/14 05:11:57;;;;;;;17.77;12.03;;;8.70;99.90;;;;;;953965;149;27342;-79
2023/12/14 05:14:24;;;;;;;16.07;11.77;;;8.70;99.90;;;;;;954521;148;27324;-79
2023/12/14 05:16:51;;;;;;;16.60;11.43;;;8.70;99.90;;;;;;955229;148;27317;-79
2023/12/14 05:19:17;;;;;;;16.53;11.57;;;8.70;99.90;;;;;;954846;147;27834;-80
2023/12/14 05:21:43;;;;;;;15.87;11.60;;;8.70;99.90;;;;;;955347;146;27354;-79
2023/12/14 05:24:10;;;;;;;20.50;12.83;;;8.70;99.90;;;;;;954524;146;27589;-79
2023/12/14 05:26:36;;;;;;;17.87;12.07;;;8.70;99.90;;;;;;955604;149;27387;-78
2023/12/14 05:29:03;;;;;;;20.80;12.27;;;8.70;99.90;;;;;;954352;147;27346;-79
2023/12/14 05:31:30;;;;;;;16.67;11.90;;;8.70;99.90;;;;;;953744;147;27345;-80
2023/12/14 05:33:56;;;;;;;16.80;12.63;;;8.60;99.90;;;;;;955951;147;27329;-79
2023/12/14 05:36:23;;;;;;;16.90;12.17;;;8.60;99.90;;;;;;953467;149;27273;-78
2023/12/14 05:38:49;;;;;;;18.13;12.03;;;8.60;99.90;;;;;;955656;146;27358;-78
2023/12/14 05:41:16;;;;;;;17.13;11.53;;;8.60;99.90;;;;;;955920;146;27361;-79
2023/12/14 05:43:42;;;;;;;15.77;11.63;;;8.50;99.90;;;;;;955110;145;27321;-80
2023/12/14 05:46:09;;;;;;;15.37;11.60;;;8.50;99.90;;;;;;954117;146;28319;-79
2023/12/14 05:48:36;;;;;;;16.50;12.47;;;8.60;99.90;;;;;;954598;148;27283;-78
2023/12/14 05:51:02;;;;;;;18.43;12.40;;;8.60;99.90;;;;;;954472;146;27284;-79
2023/12/14 05:53:29;;;;;;;21.27;12.17;;;8.60;99.90;;;;;;952824;149;27441;-79
2023/12/14 05:55:55;;;;;;;20.60;12.10;;;8.60;99.90;;;;;;955449;148;27348;-78
2023/12/14 05:58:22;;;;;;;20.07;12.03;;;8.70;99.90;;;;;;955325;145;27359;-78
2023/12/14 06:00:49;;;;;;;19.80;11.73;;;8.70;99.90;;;;;;953747;146;27378;-79
2023/12/14 06:03:15;;;;;;;25.20;12.63;;;8.70;99.90;;;;;;952044;148;27375;-79
2023/12/14 06:05:42;;;;;;;37.97;13.93;;;8.80;99.90;;;;;;957769;149;27417;-79
2023/12/14 06:08:08;;;;;;;31.40;12.90;;;8.80;99.90;;;;;;955151;148;27340;-78
2023/12/14 06:10:36;;;;;;;29.10;12.73;;;8.80;99.90;;;;;;953539;145;27706;-80
2023/12/14 06:13:02;;;;;;;26.00;11.93;;;8.80;99.90;;;;;;955871;147;27305;-82
2023/12/14 06:15:28;;;;;;;30.00;12.40;;;8.90;99.90;;;;;;952713;149;27355;-82
2023/12/14 06:17:55;;;;;;;29.17;12.43;;;8.90;99.90;;;;;;955492;147;27320;-81
2023/12/14 06:20:22;;;;;;;31.30;13.20;;;8.90;99.90;;;;;;952901;147;27290;-81
2023/12/14 06:22:48;;;;;;;29.23;12.80;;;8.90;99.90;;;;;;953059;149;27289;-82
2023/12/14 06:25:14;;;;;;;25.53;12.20;;;8.90;99.90;;;;;;954673;147;27782;-82
2023/12/14 06:27:41;;;;;;;28.83;11.43;;;8.90;99.90;;;;;;954906;148;27443;-82
2023/12/14 06:30:09;;;;;;;26.73;11.83;;;8.90;99.90;;;;;;953787;147;27423;-82
2023/12/14 06:32:35;;;;;;;22.90;11.73;;;8.90;99.90;;;;;;954458;148;27887;-81
2023/12/14 06:35:01;;;;;;;16.10;11.13;;;9.00;99.90;;;;;;954349;149;27274;-82
2023/12/14 06:37:28;;;;;;;27.80;11.77;;;9.00;99.90;;;;;;954655;146;27262;-82
2023/12/14 06:39:54;;;;;;;17.97;10.40;;;9.00;99.90;;;;;;954544;148;27342;-82
2023/12/14 06:42:21;;;;;;;16.10;11.33;;;9.00;99.90;;;;;;955785;146;27301;-82
2023/12/14 06:44:47;;;;;;;17.03;10.60;;;9.00;99.90;;;;;;953945;149;27379;-82
2023/12/14 06:47:14;;;;;;;18.53;10.60;;;9.00;99.90;;;;;;952858;149;27372;-81
2023/12/14 06:49:40;;;;;;;14.13;10.37;;;9.00;99.90;;;;;;954068;145;27288;-81
2023/12/14 06:52:07;;;;;;;13.00;9.43;;;9.00;99.90;;;;;;955354;145;27341;-81
2023/12/14 06:54:34;;;;;;;12.10;10.13;;;9.00;99.90;;;;;;954517;149;27298;-81
2023/12/14 06:57:00;;;;;;;14.13;10.23;;;9.00;99.90;;;;;;956407;145;27250;-81
2023/12/14 06:59:27;;;;;;;13.27;10.70;;;9.00;99.90;;;;;;953266;146;27842;-81
2023/12/14 07:01:53;;;;;;;12.60;9.40;;;9.00;99.90;;;;;;953909;148;27451;-82
2023/12/14 07:04:20;;;;;;;11.13;9.67;;;9.10;99.90;;;;;;956238;146;27402;-81
2023/12/14 07:06:53;;;;;;;13.93;10.20;;;9.10;99.90;;;;;;954822;149;27299;-81
2023/12/14 07:09:19;;;;;;;14.97;10.40;;;9.10;99.90;;;;;;954828;146;27731;-82
2023/12/14 07:11:46;;;;;;;13.13;10.03;;;9.10;99.90;;;;;;952174;145;27316;-82
2023/12/14 07:14:12;;;;;;;13.93;10.87;;;9.10;99.90;;;;;;957518;146;28040;-82
2023/12/14 07:16:39;;;;;;;13.33;10.23;;;9.10;99.90;;;;;;952923;146;27375;-82
2023/12/14 07:19:06;;;;;;;15.10;9.57;;;9.10;99.90;;;;;;953216;145;27290;-82
2023/12/14 07:21:32;;;;;;;10.27;9.13;;;9.10;99.90;;;;;;955788;146;27682;-82
2023/12/14 07:23:59;;;;;;;14.30;10.20;;;9.10;99.90;;;;;;955191;145;27317;-82
2023/12/14 07:26:25;;;;;;;12.17;10.20;;;9.10;99.90;;;;;;950112;149;27235;-82
2023/12/14 07:28:52;;;;;;;11.27;9.63;;;9.10;99.90;;;;;;950027;146;27322;-82
2023/12/14 07:31:18;;;;;;;16.10;10.97;;;9.10;99.90;;;;;;949367;149;27339;-82
2023/12/14 07:33:45;;;;;;;11.00;9.43;;;9.10;99.90;;;;;;950305;146;27383;-82
2023/12/14 07:36:12;;;;;;;12.47;9.53;;;9.10;99.90;;;;;;947995;149;27354;-82
2023/12/14 07:38:38;;;;;;;11.80;9.83;;;9.10;99.90;;;;;;949970;146;27280;-82
2023/12/14 07:41:05;;;;;;;14.27;10.90;;;9.10;99.90;;;;;;949587;146;27291;-82
2023/12/14 07:43:31;;;;;;;14.23;10.87;;;9.10;99.90;;;;;;950550;148;27351;-82
2023/12/14 07:45:58;;;;;;;15.87;11.23;;;9.20;99.90;;;;;;946687;149;27333;-82
2023/12/14 07:48:25;;;;;;;13.80;10.63;;;9.20;99.90;;;;;;946724;146;27311;-82
2023/12/14 07:50:51;;;;;;;14.97;11.43;;;9.20;99.90;;;;;;949745;146;27395;-82
2023/12/14 07:53:18;;;;;;;11.70;10.50;;;9.30;99.90;;;;;;950866;146;27923;-82
2023/12/14 07:55:44;;;;;;;14.27;11.37;;;9.30;99.90;;;;;;948477;149;27402;-81
2023/12/14 07:58:11;;;;;;;12.50;11.13;;;9.30;99.90;;;;;;949939;148;27407;-82
2023/12/14 08:00:37;;;;;;;13.10;10.90;;;9.40;99.90;;;;;;946545;147;27370;-82
2023/12/14 08:03:05;;;;;;;14.17;11.40;;;9.50;99.90;;;;;;948002;148;27389;-82
2023/12/14 08:05:31;;;;;;;12.97;11.20;;;9.60;99.90;;;;;;950278;148;27308;-82
2023/12/14 08:07:57;;;;;;;13.27;11.57;;;9.70;99.90;;;;;;949834;148;27347;-82
2023/12/14 08:10:24;;;;;;;14.57;11.60;;;9.70;99.90;;;;;;948616;149;27414;-82
2023/12/14 08:12:52;;;;;;;13.20;11.37;;;9.80;99.90;;;;;;947902;146;27372;-82
2023/12/14 08:15:17;;;;;;;15.20;11.43;;;9.80;99.90;;;;;;949404;148;27400;-82
2023/12/14 08:17:44;;;;;;;11.90;10.70;;;9.80;99.90;;;;;;951255;147;27389;-82
2023/12/14 08:20:12;;;;;;;12.30;11.00;;;9.80;99.90;;;;;;949774;148;28593;-82
2023/12/14 08:22:37;;;;;;;13.80;11.57;;;9.80;99.90;;;;;;950012;146;27281;-82
2023/12/14 08:25:03;;;;;;;13.07;11.07;;;9.90;99.90;;;;;;951478;148;27423;-82
2023/12/14 08:27:30;;;;;;;13.03;10.60;;;9.80;99.90;;;;;;955631;146;27418;-82
2023/12/14 08:29:57;;;;;;;11.07;9.87;;;9.90;99.90;;;;;;954329;148;27354;-82
2023/12/14 08:32:23;;;;;;;10.53;9.43;;;9.80;99.90;;;;;;956186;148;27266;-82
2023/12/14 08:34:50;;;;;;;11.00;9.90;;;9.90;99.90;;;;;;954058;148;27246;-82
2023/12/14 08:37:16;;;;;;;10.87;9.00;;;9.90;99.90;;;;;;953971;149;27299;-83
2023/12/14 08:39:43;;;;;;;11.30;10.00;;;9.90;99.90;;;;;;953631;147;27350;-82
2023/12/14 08:42:11;;;;;;;10.67;9.57;;;9.90;99.90;;;;;;954301;148;28801;-82
2023/12/14 08:44:36;;;;;;;10.83;9.73;;;9.90;99.90;;;;;;954714;145;27379;-82
2023/12/14 08:47:04;;;;;;;11.57;9.63;;;9.90;99.90;;;;;;954502;145;27254;-81
2023/12/14 08:49:29;;;;;;;11.60;9.93;;;10.00;99.90;;;;;;954327;148;27333;-82
2023/12/14 08:51:56;;;;;;;10.33;9.30;;;10.00;99.90;;;;;;954691;147;27346;-82
2023/12/14 08:54:22;;;;;;;11.43;9.80;;;10.00;99.90;;;;;;954677;145;27576;-82
2023/12/14 08:56:49;;;;;;;10.77;9.47;;;10.00;99.90;;;;;;953638;147;27251;-82
2023/12/14 08:59:16;;;;;;;12.27;9.73;;;10.00;99.90;;;;;;955004;149;27318;-82
2023/12/14 09:01:42;;;;;;;13.00;9.40;;;10.00;99.90;;;;;;954443;146;27501;-82
2023/12/14 09:04:09;;;;;;;10.57;9.20;;;10.10;99.90;;;;;;954196;149;27330;-82
2023/12/14 09:06:35;;;;;;;11.33;8.90;;;10.10;99.90;;;;;;952839;149;27299;-83
2023/12/14 09:09:03;;;;;;;9.73;8.60;;;10.10;99.90;;;;;;953559;148;27293;-83
2023/12/14 09:11:29;;;;;;;9.67;8.67;;;10.10;99.90;;;;;;954141;149;27317;-82
2023/12/14 09:13:55;;;;;;;10.17;8.57;;;10.10;99.90;;;;;;953529;147;27346;-82
2023/12/14 09:16:22;;;;;;;9.77;8.77;;;10.10;99.90;;;;;;954444;146;27327;-82
2023/12/14 09:18:48;;;;;;;9.97;8.97;;;10.20;99.90;;;;;;954113;145;27255;-82
2023/12/14 09:21:15;;;;;;;9.37;7.87;;;10.20;99.90;;;;;;952771;145;27364;-82
2023/12/14 09:23:42;;;;;;;10.80;9.53;;;10.20;99.90;;;;;;954344;147;27300;-82
2023/12/14 09:26:08;;;;;;;10.13;8.77;;;10.20;99.90;;;;;;954462;146;27333;-82
2023/12/14 09:28:35;;;;;;;11.50;9.60;;;10.20;99.90;;;;;;954166;145;27274;-82
2023/12/14 09:31:01;;;;;;;10.13;8.87;;;10.20;99.90;;;;;;954484;149;27391;-82
2023/12/14 09:33:28;;;;;;;10.80;9.23;;;10.20;99.90;;;;;;954222;147;27374;-82
2023/12/14 09:35:54;;;;;;;10.03;8.97;;;10.20;99.90;;;;;;956850;146;27431;-82
2023/12/14 09:38:21;;;;;;;9.80;8.57;;;10.20;99.90;;;;;;954465;149;27287;-82
2023/12/14 09:40:48;;;;;;;10.27;9.17;;;10.20;99.90;;;;;;954078;147;27298;-82
2023/12/14 09:43:14;;;;;;;8.93;8.03;;;10.20;99.90;;;;;;956717;146;27254;-82
2023/12/14 09:45:44;;;;;;;11.43;9.13;;;10.20;99.90;;;;;;955186;147;27787;-80
2023/12/14 09:48:07;;;;;;;11.67;8.93;;;10.20;99.90;;;;;;956958;146;27315;-80
2023/12/14 09:50:34;;;;;;;10.63;9.03;;;10.20;99.90;;;;;;953831;148;27443;-80
2023/12/14 09:53:01;;;;;;;10.83;8.60;;;10.20;99.90;;;;;;955298;146;27213;-80
2023/12/14 09:55:27;;;;;;;10.33;8.63;;;10.30;99.90;;;;;;955024;145;27338;-80
2023/12/14 09:57:54;;;;;;;9.07;7.90;;;10.30;99.90;;;;;;953979;146;27916;-80
2023/12/14 10:00:33;;;;;;;10.20;8.70;;;10.30;99.90;;;;;;955550;146;27380;-80
2023/12/14 10:02:59;;;;;;;9.93;8.47;;;10.30;99.90;;;;;;953589;149;27331;-80
2023/12/14 10:05:27;;;;;;;9.43;8.48;;;10.30;99.90;;;;;;953461;149;27262;-80
2023/12/14 10:07:52;;;;;;;9.40;8.50;;;10.40;99.90;;;;;;953209;146;27466;-80
2023/12/14 10:10:19;;;;;;;9.57;8.20;;;10.40;99.90;;;;;;956089;145;27320;-80
2023/12/14 10:12:54;;;;;;;9.47;8.13;;;10.40;99.90;;;;;;952968;147;27284;-80
2023/12/14 10:15:23;;;;;;;9.33;8.30;;;10.50;99.90;;;;;;954131;149;27303;-80
2023/12/14 10:17:53;;;;;;;9.17;8.07;;;10.50;99.90;;;;;;952548;149;27340;-80
2023/12/14 10:20:14;;;;;;;10.80;8.20;;;10.50;99.90;;;;;;954537;147;29156;-80
2023/12/14 10:22:41;;;;;;;9.17;7.77;;;10.60;99.90;;;;;;953096;145;27295;-80
2023/12/14 10:25:09;;;;;;;9.37;8.40;;;10.60;99.90;;;;;;954559;146;27288;-80
2023/12/14 10:27:34;;;;;;;10.13;7.70;;;10.60;99.90;;;;;;954543;147;27389;-80
2023/12/14 10:30:00;;;;;;;10.13;8.65;;;10.60;99.90;;;;;;953214;147;27316;-81
2023/12/14 10:32:27;;;;;;;9.85;8.85;;;10.60;99.90;;;;;;951376;148;27373;-80
2023/12/14 10:34:53;;;;;;;11.40;9.00;;;10.60;99.90;;;;;;952330;147;27372;-80
2023/12/14 10:37:20;;;;;;;10.03;9.03;;;10.70;99.90;;;;;;955235;148;27289;-80
2023/12/14 10:39:48;;;;;;;12.00;8.90;;;10.70;99.90;;;;;;953590;148;27314;-80
2023/12/14 10:42:13;;;;;;;11.57;9.63;;;10.70;99.90;;;;;;953552;148;27330;-81
2023/12/14 10:44:40;;;;;;;10.83;9.37;;;10.80;99.90;;;;;;952619;146;27287;-80
2023/12/14 10:47:07;;;;;;;11.53;8.98;;;10.70;99.90;;;;;;951851;148;27344;-80
2023/12/14 10:49:34;;;;;;;10.90;9.50;;;10.80;99.90;;;;;;952509;147;27419;-81
2023/12/14 10:51:59;;;;;;;13.60;10.00;;;10.80;99.90;;;;;;951987;148;27463;-80
2023/12/14 10:54:26;;;;;;;12.63;10.57;;;10.80;99.90;;;;;;951992;147;27266;-80
2023/12/14 10:56:56;;;;;;;17.27;11.27;;;10.80;99.90;;;;;;953993;148;27292;-80
2023/12/14 10:59:22;;;;;;;14.23;11.43;;;10.80;99.90;;;;;;953964;147;27429;-80
2023/12/14 11:01:51;;;;;;;13.17;11.20;;;10.80;99.90;;;;;;952078;145;27433;-80
2023/12/14 11:04:19;;;;;;;14.10;10.93;;;10.80;99.90;;;;;;950774;148;27381;-80
2023/12/14 11:06:47;;;;;;;15.47;11.20;;;10.80;99.90;;;;;;948719;149;27281;-82
2023/12/14 11:09:14;;;;;;;15.60;9.93;;;10.90;99.90;;;;;;952390;148;27267;-82
2023/12/14 11:11:41;;;;;;;11.57;10.37;;;10.80;99.90;;;;;;951900;148;27351;-82
2023/12/14 11:14:08;;;;;;;11.63;9.85;;;10.90;99.90;;;;;;952664;147;27368;-81
2023/12/14 11:16:35;;;;;;;9.93;8.93;;;10.90;99.90;;;;;;952496;148;27259;-82
2023/12/14 11:19:23;;;;;;;9.70;8.63;;;11.00;99.90;;;;;;947636;148;27318;-81
2023/12/14 11:21:49;;;;;;;10.73;8.60;;;11.00;99.90;;;;;;952229;148;27265;-81
2023/12/14 11:24:16;;;;;;;10.90;8.63;;;11.00;99.90;;;;;;950474;148;27319;-81
2023/12/14 11:26:42;;;;;;;9.50;8.40;;;11.00;99.90;;;;;;948307;145;27419;-80
2023/12/14 11:29:09;;;;;;;10.27;8.20;;;11.00;99.90;;;;;;950336;149;28025;-80
2023/12/14 11:31:36;;;;;;;10.13;8.43;;;11.00;99.90;;;;;;948205;146;27258;-81
2023/12/14 11:34:03;;;;;;;9.23;8.20;;;11.00;99.90;;;;;;951881;146;27363;-81
2023/12/14 11:36:29;;;;;;;10.30;9.10;;;11.00;99.90;;;;;;948918;147;27316;-80
2023/12/14 11:38:55;;;;;;;14.13;9.87;;;11.00;99.90;;;;;;949342;147;27348;-80
2023/12/14 11:41:25;;;;;;;11.37;9.40;;;11.00;99.90;;;;;;951881;147;27408;-81
2023/12/14 11:43:48;;;;;;;11.07;9.43;;;11.00;99.90;;;;;;947079;146;27266;-81
2023/12/14 11:46:15;;;;;;;10.37;9.27;;;11.00;99.90;;;;;;949965;149;27386;-81
2023/12/14 11:48:42;;;;;;;9.70;8.70;;;10.90;99.90;;;;;;950813;149;27349;-81
2023/12/14 11:51:08;;;;;;;10.07;9.07;;;10.90;99.90;;;;;;948558;149;27323;-81
2023/12/14 11:53:38;;;;;;;11.53;9.67;;;10.90;99.90;;;;;;948439;147;27265;-81
2023/12/14 11:56:02;;;;;;;11.18;9.55;;;10.90;99.90;;;;;;949930;148;27303;-80
2023/12/14 11:58:28;;;;;;;11.23;9.00;;;10.90;99.90;;;;;;949218;146;27657;-80
2023/12/14 12:00:55;;;;;;;10.53;9.45;;;10.90;99.90;;;;;;950098;147;27314;-81
2023/12/14 12:03:21;;;;;;;9.93;8.87;;;10.90;99.90;;;;;;949453;149;27286;-81
2023/12/14 12:05:48;;;;;;;11.27;9.20;;;10.90;99.90;;;;;;948538;149;27377;-79
2023/12/14 12:08:14;;;;;;;10.87;9.23;;;10.90;99.90;;;;;;951143;149;27369;-79
2023/12/14 12:10:41;;;;;;;10.27;8.57;;;10.90;99.90;;;;;;949227;147;27442;-79
2023/12/14 12:13:08;;;;;;;11.15;8.30;;;11.00;99.90;;;;;;949493;149;27784;-79
2023/12/14 12:15:35;;;;;;;9.47;8.47;;;11.00;99.90;;;;;;949094;148;27422;-80
2023/12/14 12:18:01;;;;;;;8.00;7.20;;;11.10;99.90;;;;;;948269;147;27295;-80
2023/12/14 12:20:27;;;;;;;8.73;7.83;;;11.10;99.90;;;;;;948158;147;27271;-80
2023/12/14 12:22:54;;;;;;;10.00;7.93;;;11.20;99.90;;;;;;949006;147;27409;-79
2023/12/14 12:25:21;;;;;;;9.43;7.33;;;11.20;99.90;;;;;;947918;146;27332;-79
2023/12/14 12:27:47;;;;;;;7.90;6.93;;;11.30;99.90;;;;;;950598;145;27353;-80
2023/12/14 12:30:14;;;;;;;7.20;6.50;;;11.30;99.90;;;;;;954427;145;27226;-80
2023/12/14 12:32:40;;;;;;;7.73;7.00;;;11.30;99.90;;;;;;953615;147;27333;-80
2023/12/14 12:35:07;;;;;;;7.53;6.37;;;11.40;99.90;;;;;;954155;149;27324;-80
2023/12/14 12:37:34;;;;;;;8.97;6.77;;;11.50;99.90;;;;;;954007;148;27283;-79